sensor_id;sensor_type;location;lat;lon;timestamp;pressure;altitude;pressure_sealevel;temperature
11792;BMP180;5953;52.372;9.918;2022-10-18T00:00:52;101767.00;;;22.20
11792;BMP180;5953;52.372;9.918;2022-10-18T00:03:20;101762.00;;;22.20
11792;BMP180;5953;52.372;9.918;2022-10-18T00:05:48;101762.00;;;22.20
11792;BMP180;5953;52.372;9.918;2022-10-18T00:08:17;101771.00;;;22.20
11792;BMP180;5953;52.372;9.918;2022-10-18T00:10:45;101764.00;;;22.20
11792;BMP180;5953;52.372;9.918;2022-10-18T00:13:14;101759.00;;;22.10
11792;BMP180;5953;52.372;9.918;2022-10-18T00:15:47;101750.00;;;22.20
11792;BMP180;5953;52.372;9.918;2022-10-18T00:18:15;101760.00;;;22.20
11792;BMP180;5953;52.372;9.918;2022-10-18T00:20:43;101762.00;;;22.20
11792;BMP180;5953;52.372;9.918;2022-10-18T00:23:11;101771.00;;;22.20
11792;BMP180;5953;52.372;9.918;2022-10-18T00:25:39;101766.00;;;22.10
11792;BMP180;5953;52.372;9.918;2022-10-18T00:28:07;101764.00;;;22.10
11792;BMP180;5953;52.372;9.918;2022-10-18T00:30:36;101769.00;;;22.10
11792;BMP180;5953;52.372;9.918;2022-10-18T00:33:04;101771.00;;;22.10
11792;BMP180;5953;52.372;9.918;2022-10-18T00:35:33;101773.00;;;22.00
11792;BMP180;5953;52.372;9.918;2022-10-18T00:38:01;101789.00;;;22.00
11792;BMP180;5953;52.372;9.918;2022-10-18T00:40:29;101779.00;;;22.00
11792;BMP180;5953;52.372;9.918;2022-10-18T00:42:57;101776.00;;;22.00
11792;BMP180;5953;52.372;9.918;2022-10-18T00:45:25;101786.00;;;22.00
11792;BMP180;5953;52.372;9.918;2022-10-18T00:47:57;101798.00;;;21.90
11792;BMP180;5953;52.372;9.918;2022-10-18T00:50:28;101795.00;;;22.00
11792;BMP180;5953;52.372;9.918;2022-10-18T00:52:58;101793.00;;;21.90
11792;BMP180;5953;52.372;9.918;2022-10-18T00:55:30;101791.00;;;21.90
11792;BMP180;5953;52.372;9.918;2022-10-18T00:57:59;101793.00;;;21.90
11792;BMP180;5953;52.372;9.918;2022-10-18T01:00:27;101785.00;;;22.00
11792;BMP180;5953;52.372;9.918;2022-10-18T01:02:57;101763.00;;;21.90
11792;BMP180;5953;52.372;9.918;2022-10-18T01:05:25;101786.00;;;22.00
11792;BMP180;5953;52.372;9.918;2022-10-18T01:08:10;101792.00;;;22.00
11792;BMP180;5953;52.372;9.918;2022-10-18T01:10:44;101797.00;;;21.90
11792;BMP180;5953;52.372;9.918;2022-10-18T01:13:24;101793.00;;;21.90
11792;BMP180;5953;52.372;9.918;2022-10-18T01:15:58;101795.00;;;21.90
11792;BMP180;5953;52.372;9.918;2022-10-18T01:18:32;101796.00;;;21.80
11792;BMP180;5953;52.372;9.918;2022-10-18T01:21:08;101792.00;;;21.80
11792;BMP180;5953;52.372;9.918;2022-10-18T01:24:01;101795.00;;;21.80
11792;BMP180;5953;52.372;9.918;2022-10-18T01:26:50;101801.00;;;21.80
11792;BMP180;5953;52.372;9.918;2022-10-18T01:29:27;101787.00;;;21.80
11792;BMP180;5953;52.372;9.918;2022-10-18T01:31:59;101794.00;;;21.80
11792;BMP180;5953;52.372;9.918;2022-10-18T01:34:32;101784.00;;;21.80
11792;BMP180;5953;52.372;9.918;2022-10-18T01:37:04;101772.00;;;21.90
11792;BMP180;5953;52.372;9.918;2022-10-18T01:39:35;101767.00;;;22.00
11792;BMP180;5953;52.372;9.918;2022-10-18T01:42:06;101764.00;;;22.00
11792;BMP180;5953;52.372;9.918;2022-10-18T01:44:38;101766.00;;;22.00
11792;BMP180;5953;52.372;9.918;2022-10-18T01:47:10;101760.00;;;21.80
11792;BMP180;5953;52.372;9.918;2022-10-18T01:49:38;101757.00;;;21.80
11792;BMP180;5953;52.372;9.918;2022-10-18T01:52:08;101765.00;;;21.90
11792;BMP180;5953;52.372;9.918;2022-10-18T01:54:38;101757.00;;;21.80
11792;BMP180;5953;52.372;9.918;2022-10-18T01:57:11;101754.00;;;21.70
11792;BMP180;5953;52.372;9.918;2022-10-18T01:59:49;101757.00;;;21.70
11792;BMP180;5953;52.372;9.918;2022-10-18T02:02:30;101751.00;;;21.90
11792;BMP180;5953;52.372;9.918;2022-10-18T02:05:12;101754.00;;;21.70
11792;BMP180;5953;52.372;9.918;2022-10-18T02:07:46;101753.00;;;21.60
11792;BMP180;5953;52.372;9.918;2022-10-18T02:10:39;101747.00;;;21.50
11792;BMP180;5953;52.372;9.918;2022-10-18T02:13:08;101744.00;;;21.50
11792;BMP180;5953;52.372;9.918;2022-10-18T02:15:39;101752.00;;;21.40
11792;BMP180;5953;52.372;9.918;2022-10-18T02:18:14;101747.00;;;21.50
11792;BMP180;5953;52.372;9.918;2022-10-18T02:20:44;101744.00;;;21.50
11792;BMP180;5953;52.372;9.918;2022-10-18T02:23:14;101743.00;;;21.50
11792;BMP180;5953;52.372;9.918;2022-10-18T02:25:43;101745.00;;;21.50
11792;BMP180;5953;52.372;9.918;2022-10-18T02:28:10;101750.00;;;21.50
11792;BMP180;5953;52.372;9.918;2022-10-18T02:30:43;101748.00;;;21.40
11792;BMP180;5953;52.372;9.918;2022-10-18T02:33:17;101744.00;;;21.20
11792;BMP180;5953;52.372;9.918;2022-10-18T02:35:51;101756.00;;;21.30
11792;BMP180;5953;52.372;9.918;2022-10-18T02:38:22;101736.00;;;21.30
11792;BMP180;5953;52.372;9.918;2022-10-18T02:40:51;101732.00;;;21.30
11792;BMP180;5953;52.372;9.918;2022-10-18T02:43:19;101734.00;;;21.30
11792;BMP180;5953;52.372;9.918;2022-10-18T02:45:50;101729.00;;;21.20
11792;BMP180;5953;52.372;9.918;2022-10-18T02:48:19;101725.00;;;21.30
11792;BMP180;5953;52.372;9.918;2022-10-18T02:50:47;101718.00;;;21.30
11792;BMP180;5953;52.372;9.918;2022-10-18T02:53:15;101729.00;;;21.00
11792;BMP180;5953;52.372;9.918;2022-10-18T02:55:43;101723.00;;;21.10
11792;BMP180;5953;52.372;9.918;2022-10-18T02:58:10;101742.00;;;21.10
11792;BMP180;5953;52.372;9.918;2022-10-18T03:00:40;101728.00;;;21.00
11792;BMP180;5953;52.372;9.918;2022-10-18T03:03:07;101724.00;;;21.10
11792;BMP180;5953;52.372;9.918;2022-10-18T03:05:37;101724.00;;;21.20
11792;BMP180;5953;52.372;9.918;2022-10-18T03:08:04;101716.00;;;21.30
11792;BMP180;5953;52.372;9.918;2022-10-18T03:10:32;101717.00;;;21.10
11792;BMP180;5953;52.372;9.918;2022-10-18T03:13:00;101725.00;;;21.20
11792;BMP180;5953;52.372;9.918;2022-10-18T03:15:28;101722.00;;;21.20
11792;BMP180;5953;52.372;9.918;2022-10-18T03:17:56;101726.00;;;21.00
11792;BMP180;5953;52.372;9.918;2022-10-18T03:20:23;101724.00;;;21.00
11792;BMP180;5953;52.372;9.918;2022-10-18T03:22:52;101717.00;;;21.10
11792;BMP180;5953;52.372;9.918;2022-10-18T03:25:20;101733.00;;;21.10
11792;BMP180;5953;52.372;9.918;2022-10-18T03:27:48;101726.00;;;21.10
11792;BMP180;5953;52.372;9.918;2022-10-18T03:30:16;101722.00;;;21.20
11792;BMP180;5953;52.372;9.918;2022-10-18T03:32:44;101713.00;;;21.30
11792;BMP180;5953;52.372;9.918;2022-10-18T03:35:12;101721.00;;;21.20
11792;BMP180;5953;52.372;9.918;2022-10-18T03:37:39;101728.00;;;21.00
11792;BMP180;5953;52.372;9.918;2022-10-18T03:40:09;101722.00;;;20.90
11792;BMP180;5953;52.372;9.918;2022-10-18T03:42:37;101727.00;;;20.80
11792;BMP180;5953;52.372;9.918;2022-10-18T03:45:06;101717.00;;;20.90
11792;BMP180;5953;52.372;9.918;2022-10-18T03:47:34;101719.00;;;21.00
11792;BMP180;5953;52.372;9.918;2022-10-18T03:50:02;101701.00;;;20.90
11792;BMP180;5953;52.372;9.918;2022-10-18T03:52:30;101703.00;;;20.90
11792;BMP180;5953;52.372;9.918;2022-10-18T03:54:58;101691.00;;;20.90
11792;BMP180;5953;52.372;9.918;2022-10-18T03:57:28;101704.00;;;20.80
11792;BMP180;5953;52.372;9.918;2022-10-18T03:59:55;101700.00;;;20.80
11792;BMP180;5953;52.372;9.918;2022-10-18T04:02:24;101701.00;;;20.70
11792;BMP180;5953;52.372;9.918;2022-10-18T04:04:52;101703.00;;;20.60
11792;BMP180;5953;52.372;9.918;2022-10-18T04:07:20;101707.00;;;20.60
11792;BMP180;5953;52.372;9.918;2022-10-18T04:09:48;101708.00;;;20.50
11792;BMP180;5953;52.372;9.918;2022-10-18T04:12:15;101704.00;;;20.50
11792;BMP180;5953;52.372;9.918;2022-10-18T04:14:45;101700.00;;;20.60
11792;BMP180;5953;52.372;9.918;2022-10-18T04:17:12;101696.00;;;20.70
11792;BMP180;5953;52.372;9.918;2022-10-18T04:19:40;101706.00;;;20.50
11792;BMP180;5953;52.372;9.918;2022-10-18T04:22:08;101711.00;;;20.50
11792;BMP180;5953;52.372;9.918;2022-10-18T04:24:37;101697.00;;;20.50
11792;BMP180;5953;52.372;9.918;2022-10-18T04:27:05;101699.00;;;20.40
11792;BMP180;5953;52.372;9.918;2022-10-18T04:29:34;101717.00;;;20.50
11792;BMP180;5953;52.372;9.918;2022-10-18T04:32:03;101717.00;;;20.40
11792;BMP180;5953;52.372;9.918;2022-10-18T04:34:31;101713.00;;;20.50
11792;BMP180;5953;52.372;9.918;2022-10-18T04:36:59;101716.00;;;20.50
11792;BMP180;5953;52.372;9.918;2022-10-18T04:39:27;101714.00;;;20.40
11792;BMP180;5953;52.372;9.918;2022-10-18T04:41:55;101718.00;;;20.40
11792;BMP180;5953;52.372;9.918;2022-10-18T04:44:22;101713.00;;;20.50
11792;BMP180;5953;52.372;9.918;2022-10-18T04:46:50;101707.00;;;20.40
11792;BMP180;5953;52.372;9.918;2022-10-18T04:49:19;101713.00;;;20.50
11792;BMP180;5953;52.372;9.918;2022-10-18T04:51:47;101705.00;;;20.50
11792;BMP180;5953;52.372;9.918;2022-10-18T04:54:15;101707.00;;;20.50
11792;BMP180;5953;52.372;9.918;2022-10-18T04:56:43;101705.00;;;20.60
11792;BMP180;5953;52.372;9.918;2022-10-18T04:59:11;101704.00;;;20.60
11792;BMP180;5953;52.372;9.918;2022-10-18T05:01:39;101711.00;;;20.50
11792;BMP180;5953;52.372;9.918;2022-10-18T05:04:06;101714.00;;;20.60
11792;BMP180;5953;52.372;9.918;2022-10-18T05:06:37;101699.00;;;20.40
11792;BMP180;5953;52.372;9.918;2022-10-18T05:09:04;101714.00;;;20.50
11792;BMP180;5953;52.372;9.918;2022-10-18T05:11:32;101715.00;;;20.40
11792;BMP180;5953;52.372;9.918;2022-10-18T05:14:00;101712.00;;;20.40
11792;BMP180;5953;52.372;9.918;2022-10-18T05:16:28;101713.00;;;20.40
11792;BMP180;5953;52.372;9.918;2022-10-18T05:18:57;101725.00;;;20.50
11792;BMP180;5953;52.372;9.918;2022-10-18T05:21:25;101714.00;;;20.40
11792;BMP180;5953;52.372;9.918;2022-10-18T05:23:55;101726.00;;;20.40
11792;BMP180;5953;52.372;9.918;2022-10-18T05:26:23;101726.00;;;20.50
11792;BMP180;5953;52.372;9.918;2022-10-18T05:28:51;101724.00;;;20.50
11792;BMP180;5953;52.372;9.918;2022-10-18T05:31:19;101724.00;;;20.40
11792;BMP180;5953;52.372;9.918;2022-10-18T05:33:46;101734.00;;;20.40
11792;BMP180;5953;52.372;9.918;2022-10-18T05:36:14;101736.00;;;20.30
11792;BMP180;5953;52.372;9.918;2022-10-18T05:38:42;101736.00;;;20.30
11792;BMP180;5953;52.372;9.918;2022-10-18T05:41:12;101737.00;;;20.20
11792;BMP180;5953;52.372;9.918;2022-10-18T05:43:40;101742.00;;;20.30
11792;BMP180;5953;52.372;9.918;2022-10-18T05:46:08;101744.00;;;20.40
11792;BMP180;5953;52.372;9.918;2022-10-18T05:48:40;101743.00;;;20.50
11792;BMP180;5953;52.372;9.918;2022-10-18T05:51:08;101742.00;;;20.70
11792;BMP180;5953;52.372;9.918;2022-10-18T05:53:36;101743.00;;;20.70
11792;BMP180;5953;52.372;9.918;2022-10-18T05:56:05;101726.00;;;20.40
11792;BMP180;5953;52.372;9.918;2022-10-18T05:58:34;101743.00;;;20.60
11792;BMP180;5953;52.372;9.918;2022-10-18T06:01:03;101744.00;;;20.60
11792;BMP180;5953;52.372;9.918;2022-10-18T06:03:32;101746.00;;;20.40
11792;BMP180;5953;52.372;9.918;2022-10-18T06:06:00;101754.00;;;20.30
11792;BMP180;5953;52.372;9.918;2022-10-18T06:08:28;101756.00;;;20.10
11792;BMP180;5953;52.372;9.918;2022-10-18T06:10:55;101755.00;;;19.90
11792;BMP180;5953;52.372;9.918;2022-10-18T06:13:23;101745.00;;;19.90
11792;BMP180;5953;52.372;9.918;2022-10-18T06:15:55;101760.00;;;19.90
11792;BMP180;5953;52.372;9.918;2022-10-18T06:18:23;101753.00;;;19.90
11792;BMP180;5953;52.372;9.918;2022-10-18T06:20:55;101762.00;;;19.90
11792;BMP180;5953;52.372;9.918;2022-10-18T06:23:23;101770.00;;;19.90
11792;BMP180;5953;52.372;9.918;2022-10-18T06:25:51;101759.00;;;20.00
11792;BMP180;5953;52.372;9.918;2022-10-18T06:28:19;101773.00;;;19.90
11792;BMP180;5953;52.372;9.918;2022-10-18T06:30:47;101768.00;;;19.90
11792;BMP180;5953;52.372;9.918;2022-10-18T06:33:16;101777.00;;;20.00
11792;BMP180;5953;52.372;9.918;2022-10-18T06:35:53;101771.00;;;20.00
11792;BMP180;5953;52.372;9.918;2022-10-18T06:38:20;101771.00;;;20.00
11792;BMP180;5953;52.372;9.918;2022-10-18T06:40:48;101780.00;;;20.00
11792;BMP180;5953;52.372;9.918;2022-10-18T06:43:16;101773.00;;;20.00
11792;BMP180;5953;52.372;9.918;2022-10-18T06:45:47;101784.00;;;20.10
11792;BMP180;5953;52.372;9.918;2022-10-18T06:48:16;101778.00;;;20.00
11792;BMP180;5953;52.372;9.918;2022-10-18T06:50:50;101789.00;;;20.00
11792;BMP180;5953;52.372;9.918;2022-10-18T06:53:18;101780.00;;;20.10
11792;BMP180;5953;52.372;9.918;2022-10-18T06:55:46;101786.00;;;20.10
11792;BMP180;5953;52.372;9.918;2022-10-18T06:58:13;101779.00;;;20.20
11792;BMP180;5953;52.372;9.918;2022-10-18T07:00:41;101787.00;;;20.10
11792;BMP180;5953;52.372;9.918;2022-10-18T07:03:10;101781.00;;;20.20
11792;BMP180;5953;52.372;9.918;2022-10-18T07:05:40;101787.00;;;20.20
11792;BMP180;5953;52.372;9.918;2022-10-18T07:08:08;101786.00;;;20.20
11792;BMP180;5953;52.372;9.918;2022-10-18T07:10:36;101793.00;;;20.20
11792;BMP180;5953;52.372;9.918;2022-10-18T07:13:04;101794.00;;;20.20
11792;BMP180;5953;52.372;9.918;2022-10-18T07:16:02;101790.00;;;20.20
11792;BMP180;5953;52.372;9.918;2022-10-18T07:18:32;101785.00;;;20.20
11792;BMP180;5953;52.372;9.918;2022-10-18T07:21:03;101780.00;;;20.20
11792;BMP180;5953;52.372;9.918;2022-10-18T07:23:32;101785.00;;;20.20
11792;BMP180;5953;52.372;9.918;2022-10-18T07:26:01;101783.00;;;20.10
11792;BMP180;5953;52.372;9.918;2022-10-18T07:28:29;101787.00;;;20.20
11792;BMP180;5953;52.372;9.918;2022-10-18T07:31:03;101785.00;;;20.20
11792;BMP180;5953;52.372;9.918;2022-10-18T07:33:31;101789.00;;;20.30
11792;BMP180;5953;52.372;9.918;2022-10-18T07:36:00;101781.00;;;20.40
11792;BMP180;5953;52.372;9.918;2022-10-18T07:38:29;101790.00;;;20.50
11792;BMP180;5953;52.372;9.918;2022-10-18T07:40:58;101788.00;;;20.40
11792;BMP180;5953;52.372;9.918;2022-10-18T07:43:28;101785.00;;;20.40
11792;BMP180;5953;52.372;9.918;2022-10-18T07:45:57;101795.00;;;20.30
11792;BMP180;5953;52.372;9.918;2022-10-18T07:48:26;101783.00;;;20.50
11792;BMP180;5953;52.372;9.918;2022-10-18T07:50:57;101788.00;;;20.70
11792;BMP180;5953;52.372;9.918;2022-10-18T07:53:25;101776.00;;;20.70
11792;BMP180;5953;52.372;9.918;2022-10-18T07:55:57;101790.00;;;20.60
11792;BMP180;5953;52.372;9.918;2022-10-18T07:58:29;101791.00;;;20.70
11792;BMP180;5953;52.372;9.918;2022-10-18T08:01:00;101790.00;;;20.60
11792;BMP180;5953;52.372;9.918;2022-10-18T08:03:29;101786.00;;;20.70
11792;BMP180;5953;52.372;9.918;2022-10-18T08:05:57;101782.00;;;20.60
11792;BMP180;5953;52.372;9.918;2022-10-18T08:08:26;101778.00;;;20.70
11792;BMP180;5953;52.372;9.918;2022-10-18T08:10:54;101773.00;;;20.80
11792;BMP180;5953;52.372;9.918;2022-10-18T08:13:23;101771.00;;;20.80
11792;BMP180;5953;52.372;9.918;2022-10-18T08:15:58;101776.00;;;20.80
11792;BMP180;5953;52.372;9.918;2022-10-18T08:18:26;101785.00;;;20.70
11792;BMP180;5953;52.372;9.918;2022-10-18T08:20:54;101782.00;;;20.70
11792;BMP180;5953;52.372;9.918;2022-10-18T08:23:22;101776.00;;;20.90
11792;BMP180;5953;52.372;9.918;2022-10-18T08:25:49;101772.00;;;20.90
11792;BMP180;5953;52.372;9.918;2022-10-18T08:28:17;101781.00;;;20.80
11792;BMP180;5953;52.372;9.918;2022-10-18T08:30:47;101777.00;;;20.90
11792;BMP180;5953;52.372;9.918;2022-10-18T08:33:14;101788.00;;;21.00
11792;BMP180;5953;52.372;9.918;2022-10-18T08:35:42;101785.00;;;21.10
11792;BMP180;5953;52.372;9.918;2022-10-18T08:38:10;101788.00;;;21.10
11792;BMP180;5953;52.372;9.918;2022-10-18T08:40:44;101787.00;;;21.20
11792;BMP180;5953;52.372;9.918;2022-10-18T08:43:16;101783.00;;;21.30
11792;BMP180;5953;52.372;9.918;2022-10-18T08:45:52;101786.00;;;21.10
11792;BMP180;5953;52.372;9.918;2022-10-18T08:48:24;101787.00;;;21.10
11792;BMP180;5953;52.372;9.918;2022-10-18T08:50:55;101794.00;;;21.10
11792;BMP180;5953;52.372;9.918;2022-10-18T08:53:27;101789.00;;;21.00
11792;BMP180;5953;52.372;9.918;2022-10-18T08:55:59;101785.00;;;21.00
11792;BMP180;5953;52.372;9.918;2022-10-18T08:58:30;101791.00;;;20.90
11792;BMP180;5953;52.372;9.918;2022-10-18T09:01:14;101794.00;;;21.00
11792;BMP180;5953;52.372;9.918;2022-10-18T09:03:57;101791.00;;;21.00
11792;BMP180;5953;52.372;9.918;2022-10-18T09:06:30;101809.00;;;21.10
11792;BMP180;5953;52.372;9.918;2022-10-18T09:09:14;101803.00;;;21.10
11792;BMP180;5953;52.372;9.918;2022-10-18T09:15:38;101820.00;;;21.30
11792;BMP180;5953;52.372;9.918;2022-10-18T09:18:16;101823.00;;;21.20
11792;BMP180;5953;52.372;9.918;2022-10-18T09:24:38;101825.00;;;21.00
11792;BMP180;5953;52.372;9.918;2022-10-18T09:27:14;101831.00;;;21.10
11792;BMP180;5953;52.372;9.918;2022-10-18T09:29:56;101822.00;;;21.10
11792;BMP180;5953;52.372;9.918;2022-10-18T09:32:37;101828.00;;;21.20
11792;BMP180;5953;52.372;9.918;2022-10-18T09:35:15;101827.00;;;21.10
11792;BMP180;5953;52.372;9.918;2022-10-18T09:37:44;101837.00;;;21.10
11792;BMP180;5953;52.372;9.918;2022-10-18T09:40:15;101839.00;;;21.20
11792;BMP180;5953;52.372;9.918;2022-10-18T09:42:52;101844.00;;;21.10
11792;BMP180;5953;52.372;9.918;2022-10-18T09:45:25;101836.00;;;21.10
11792;BMP180;5953;52.372;9.918;2022-10-18T09:48:02;101836.00;;;21.00
11792;BMP180;5953;52.372;9.918;2022-10-18T09:50:37;101831.00;;;21.00
11792;BMP180;5953;52.372;9.918;2022-10-18T09:53:14;101829.00;;;21.00
11792;BMP180;5953;52.372;9.918;2022-10-18T09:55:54;101832.00;;;21.00
11792;BMP180;5953;52.372;9.918;2022-10-18T09:58:27;101836.00;;;21.10
11792;BMP180;5953;52.372;9.918;2022-10-18T10:00:56;101842.00;;;21.00
11792;BMP180;5953;52.372;9.918;2022-10-18T10:03:24;101854.00;;;21.10
11792;BMP180;5953;52.372;9.918;2022-10-18T10:06:14;101847.00;;;21.10
11792;BMP180;5953;52.372;9.918;2022-10-18T10:08:48;101839.00;;;21.10
11792;BMP180;5953;52.372;9.918;2022-10-18T10:11:30;101833.00;;;21.10
11792;BMP180;5953;52.372;9.918;2022-10-18T10:14:06;101834.00;;;21.00
11792;BMP180;5953;52.372;9.918;2022-10-18T10:16:43;101840.00;;;21.10
11792;BMP180;5953;52.372;9.918;2022-10-18T10:19:16;101843.00;;;21.20
11792;BMP180;5953;52.372;9.918;2022-10-18T10:21:46;101846.00;;;21.10
11792;BMP180;5953;52.372;9.918;2022-10-18T10:24:20;101840.00;;;21.10
11792;BMP180;5953;52.372;9.918;2022-10-18T10:27:00;101838.00;;;21.30
11792;BMP180;5953;52.372;9.918;2022-10-18T10:29:52;101841.00;;;21.40
11792;BMP180;5953;52.372;9.918;2022-10-18T10:32:28;101851.00;;;21.30
11792;BMP180;5953;52.372;9.918;2022-10-18T10:34:57;101850.00;;;21.40
11792;BMP180;5953;52.372;9.918;2022-10-18T10:37:29;101848.00;;;21.30
11792;BMP180;5953;52.372;9.918;2022-10-18T10:40:14;101842.00;;;21.50
11792;BMP180;5953;52.372;9.918;2022-10-18T10:46:00;101837.00;;;21.60
11792;BMP180;5953;52.372;9.918;2022-10-18T10:48:31;101843.00;;;21.90
11792;BMP180;5953;52.372;9.918;2022-10-18T10:51:05;101828.00;;;22.00
11792;BMP180;5953;52.372;9.918;2022-10-18T10:53:42;101822.00;;;22.10
11792;BMP180;5953;52.372;9.918;2022-10-18T10:56:16;101830.00;;;22.30
11792;BMP180;5953;52.372;9.918;2022-10-18T10:58:45;101829.00;;;22.30
11792;BMP180;5953;52.372;9.918;2022-10-18T11:01:28;101830.00;;;22.40
11792;BMP180;5953;52.372;9.918;2022-10-18T11:03:59;101830.00;;;22.30
11792;BMP180;5953;52.372;9.918;2022-10-18T11:06:38;101834.00;;;22.40
11792;BMP180;5953;52.372;9.918;2022-10-18T11:09:17;101829.00;;;22.30
11792;BMP180;5953;52.372;9.918;2022-10-18T11:11:56;101830.00;;;22.50
11792;BMP180;5953;52.372;9.918;2022-10-18T11:14:29;101824.00;;;22.60
11792;BMP180;5953;52.372;9.918;2022-10-18T11:17:05;101824.00;;;22.40
11792;BMP180;5953;52.372;9.918;2022-10-18T11:19:39;101823.00;;;22.60
11792;BMP180;5953;52.372;9.918;2022-10-18T11:22:14;101816.00;;;22.40
11792;BMP180;5953;52.372;9.918;2022-10-18T11:24:44;101829.00;;;22.30
11792;BMP180;5953;52.372;9.918;2022-10-18T11:27:17;101827.00;;;22.50
11792;BMP180;5953;52.372;9.918;2022-10-18T11:29:57;101820.00;;;22.60
11792;BMP180;5953;52.372;9.918;2022-10-18T11:32:33;101817.00;;;22.90
11792;BMP180;5953;52.372;9.918;2022-10-18T11:35:21;101824.00;;;22.90
11792;BMP180;5953;52.372;9.918;2022-10-18T11:38:03;101812.00;;;23.20
11792;BMP180;5953;52.372;9.918;2022-10-18T11:40:44;101813.00;;;23.30
11792;BMP180;5953;52.372;9.918;2022-10-18T11:43:21;101815.00;;;23.20
11792;BMP180;5953;52.372;9.918;2022-10-18T11:46:05;101807.00;;;23.40
11792;BMP180;5953;52.372;9.918;2022-10-18T11:49:13;101799.00;;;23.50
11792;BMP180;5953;52.372;9.918;2022-10-18T11:51:54;101798.00;;;23.60
11792;BMP180;5953;52.372;9.918;2022-10-18T11:54:47;101805.00;;;23.60
11792;BMP180;5953;52.372;9.918;2022-10-18T11:57:31;101805.00;;;23.60
11792;BMP180;5953;52.372;9.918;2022-10-18T12:00:12;101806.00;;;23.50
11792;BMP180;5953;52.372;9.918;2022-10-18T12:02:58;101786.00;;;23.30
11792;BMP180;5953;52.372;9.918;2022-10-18T12:05:29;101790.00;;;23.30
11792;BMP180;5953;52.372;9.918;2022-10-18T12:08:02;101811.00;;;23.30
11792;BMP180;5953;52.372;9.918;2022-10-18T12:10:31;101804.00;;;23.30
11792;BMP180;5953;52.372;9.918;2022-10-18T12:13:28;101817.00;;;23.30
11792;BMP180;5953;52.372;9.918;2022-10-18T12:16:01;101800.00;;;23.30
11792;BMP180;5953;52.372;9.918;2022-10-18T12:18:31;101801.00;;;23.30
11792;BMP180;5953;52.372;9.918;2022-10-18T12:20:59;101810.00;;;23.40
11792;BMP180;5953;52.372;9.918;2022-10-18T12:23:35;101802.00;;;23.30
11792;BMP180;5953;52.372;9.918;2022-10-18T12:26:06;101799.00;;;23.00
11792;BMP180;5953;52.372;9.918;2022-10-18T12:28:43;101790.00;;;23.00
11792;BMP180;5953;52.372;9.918;2022-10-18T12:31:19;101795.00;;;23.20
11792;BMP180;5953;52.372;9.918;2022-10-18T12:33:50;101797.00;;;23.40
11792;BMP180;5953;52.372;9.918;2022-10-18T12:36:37;101796.00;;;23.30
11792;BMP180;5953;52.372;9.918;2022-10-18T12:39:20;101801.00;;;23.00
11792;BMP180;5953;52.372;9.918;2022-10-18T12:42:17;101792.00;;;23.40
11792;BMP180;5953;52.372;9.918;2022-10-18T12:44:46;101797.00;;;23.30
11792;BMP180;5953;52.372;9.918;2022-10-18T12:47:21;101783.00;;;23.40
11792;BMP180;5953;52.372;9.918;2022-10-18T12:49:57;101780.00;;;23.50
11792;BMP180;5953;52.372;9.918;2022-10-18T12:52:26;101777.00;;;23.80
11792;BMP180;5953;52.372;9.918;2022-10-18T12:55:05;101789.00;;;23.80
11792;BMP180;5953;52.372;9.918;2022-10-18T12:58:04;101781.00;;;23.60
11792;BMP180;5953;52.372;9.918;2022-10-18T13:00:57;101783.00;;;23.70
11792;BMP180;5953;52.372;9.918;2022-10-18T13:03:57;101779.00;;;23.60
11792;BMP180;5953;52.372;9.918;2022-10-18T13:09:34;101790.00;;;23.70
11792;BMP180;5953;52.372;9.918;2022-10-18T13:12:41;101789.00;;;23.50
11792;BMP180;5953;52.372;9.918;2022-10-18T13:15:28;101791.00;;;23.00
11792;BMP180;5953;52.372;9.918;2022-10-18T13:18:05;101794.00;;;23.30
11792;BMP180;5953;52.372;9.918;2022-10-18T13:20:44;101796.00;;;23.50
11792;BMP180;5953;52.372;9.918;2022-10-18T13:23:33;101803.00;;;23.20
11792;BMP180;5953;52.372;9.918;2022-10-18T13:26:13;101791.00;;;23.40
11792;BMP180;5953;52.372;9.918;2022-10-18T13:28:50;101801.00;;;23.30
11792;BMP180;5953;52.372;9.918;2022-10-18T13:31:22;101808.00;;;23.40
11792;BMP180;5953;52.372;9.918;2022-10-18T13:33:53;101797.00;;;23.40
11792;BMP180;5953;52.372;9.918;2022-10-18T13:36:23;101796.00;;;23.20
11792;BMP180;5953;52.372;9.918;2022-10-18T13:39:17;101803.00;;;23.30
11792;BMP180;5953;52.372;9.918;2022-10-18T13:42:17;101809.00;;;23.20
11792;BMP180;5953;52.372;9.918;2022-10-18T13:44:45;101808.00;;;22.80
11792;BMP180;5953;52.372;9.918;2022-10-18T13:47:14;101810.00;;;22.90
11792;BMP180;5953;52.372;9.918;2022-10-18T13:56:11;101815.00;;;22.90
11792;BMP180;5953;52.372;9.918;2022-10-18T13:58:49;101812.00;;;23.00
11792;BMP180;5953;52.372;9.918;2022-10-18T14:01:47;101824.00;;;22.90
11792;BMP180;5953;52.372;9.918;2022-10-18T14:04:44;101824.00;;;22.70
11792;BMP180;5953;52.372;9.918;2022-10-18T14:07:15;101830.00;;;22.80
11792;BMP180;5953;52.372;9.918;2022-10-18T14:09:47;101823.00;;;22.70
11792;BMP180;5953;52.372;9.918;2022-10-18T14:12:26;101827.00;;;22.80
11792;BMP180;5953;52.372;9.918;2022-10-18T14:15:01;101825.00;;;22.70
11792;BMP180;5953;52.372;9.918;2022-10-18T14:17:34;101834.00;;;22.70
11792;BMP180;5953;52.372;9.918;2022-10-18T14:20:19;101830.00;;;22.60
11792;BMP180;5953;52.372;9.918;2022-10-18T14:23:00;101836.00;;;22.30
11792;BMP180;5953;52.372;9.918;2022-10-18T14:25:30;101834.00;;;22.40
11792;BMP180;5953;52.372;9.918;2022-10-18T14:28:05;101837.00;;;22.40
11792;BMP180;5953;52.372;9.918;2022-10-18T14:30:50;101829.00;;;22.40
11792;BMP180;5953;52.372;9.918;2022-10-18T14:33:27;101837.00;;;22.50
11792;BMP180;5953;52.372;9.918;2022-10-18T14:35:58;101851.00;;;22.40
11792;BMP180;5953;52.372;9.918;2022-10-18T14:38:28;101841.00;;;22.50
11792;BMP180;5953;52.372;9.918;2022-10-18T14:41:14;101841.00;;;22.10
11792;BMP180;5953;52.372;9.918;2022-10-18T14:43:44;101842.00;;;22.20
11792;BMP180;5953;52.372;9.918;2022-10-18T14:46:18;101846.00;;;22.40
11792;BMP180;5953;52.372;9.918;2022-10-18T14:48:55;101832.00;;;22.10
11792;BMP180;5953;52.372;9.918;2022-10-18T14:51:23;101842.00;;;22.00
11792;BMP180;5953;52.372;9.918;2022-10-18T14:53:52;101840.00;;;22.20
11792;BMP180;5953;52.372;9.918;2022-10-18T14:56:24;101831.00;;;22.20
11792;BMP180;5953;52.372;9.918;2022-10-18T14:58:55;101842.00;;;22.20
11792;BMP180;5953;52.372;9.918;2022-10-18T15:01:26;101863.00;;;22.30